CheckWX is a tool to help pilots better visualize weather data.  It is not intended as a substitute for an official pre-flight weather briefing.

08:09:28 UTC

RKSI METAR
Incheon International Airport
Seoul, South Korea
Current

39 mins ago

RKSI 230730Z 31005KT CAVOK 21/11 Q1010 NOSIG
Observed
Apr-23 @ 07:30 UTC
Wind
  • 310° at 5 KTS
Visibility
10,000+ meters
Flight Rules
VFR
Cloud Levels
  • Clear skies
Temperature
21°C / 70°F
Dewpoint
11°C / 52°F
Humidity
53%
Altimeter
29.82" Hg
Pressure
1009.92 hPa
Previous

1 hour ago

RKSI 230700Z 31007KT CAVOK 21/11 Q1010 NOSIG
Observed
Apr-23 @ 07:00 UTC
Wind
  • 310° at 7 KTS
Visibility
10,000+ meters
Flight Rules
VFR
Cloud Levels
  • Clear skies
Temperature
21°C / 70°F
Dewpoint
11°C / 52°F
Humidity
53%
Altimeter
29.82" Hg
Pressure
1009.92 hPa
Previous

2 hours ago

RKSI 230630Z 32007KT CAVOK 21/11 Q1010 NOSIG
Observed
Apr-23 @ 06:30 UTC
Wind
  • 320° at 7 KTS
Visibility
10,000+ meters
Flight Rules
VFR
Cloud Levels
  • Clear skies
Temperature
21°C / 70°F
Dewpoint
11°C / 52°F
Humidity
53%
Altimeter
29.82" Hg
Pressure
1009.92 hPa